sensor_id;sensor_type;location;lat;lon;timestamp;pressure;altitude;pressure_sealevel;temperature;humidity
19845;BME280;10083;51.038;7.012;2023-12-20T00:02:11;119639.06;;;9.45;100.00
19845;BME280;10083;51.038;7.012;2023-12-20T00:04:40;119616.16;;;9.34;100.00
19845;BME280;10083;51.038;7.012;2023-12-20T00:07:07;119742.63;;;9.38;100.00
19845;BME280;10083;51.038;7.012;2023-12-20T00:09:35;119731.28;;;9.39;100.00
19845;BME280;10083;51.038;7.012;2023-12-20T00:12:03;119794.25;;;9.37;100.00
19845;BME280;10083;51.038;7.012;2023-12-20T00:14:33;119881.66;;;9.39;100.00
19845;BME280;10083;51.038;7.012;2023-12-20T00:17:00;119981.44;;;9.41;100.00
19845;BME280;10083;51.038;7.012;2023-12-20T00:19:28;120052.75;;;9.34;100.00
19845;BME280;10083;51.038;7.012;2023-12-20T00:22:03;120163.41;;;9.33;100.00
19845;BME280;10083;51.038;7.012;2023-12-20T00:24:30;120277.81;;;9.32;100.00
19845;BME280;10083;51.038;7.012;2023-12-20T00:26:57;120389.13;;;9.30;100.00
19845;BME280;10083;51.038;7.012;2023-12-20T00:29:40;120561.88;;;9.33;100.00
19845;BME280;10083;51.038;7.012;2023-12-20T00:32:08;120574.28;;;9.21;100.00
19845;BME280;10083;51.038;7.012;2023-12-20T00:34:40;120665.22;;;9.17;100.00
19845;BME280;10083;51.038;7.012;2023-12-20T00:37:09;120689.13;;;9.11;100.00
19845;BME280;10083;51.038;7.012;2023-12-20T00:39:43;120692.66;;;9.04;100.00
19845;BME280;10083;51.038;7.012;2023-12-20T00:42:10;120727.63;;;9.02;100.00
19845;BME280;10083;51.038;7.012;2023-12-20T00:44:39;120739.44;;;9.02;100.00
19845;BME280;10083;51.038;7.012;2023-12-20T00:47:09;120706.16;;;9.02;100.00
19845;BME280;10083;51.038;7.012;2023-12-20T00:49:56;120681.56;;;9.00;100.00
19845;BME280;10083;51.038;7.012;2023-12-20T00:52:23;120536.84;;;8.84;100.00
19845;BME280;10083;51.038;7.012;2023-12-20T00:54:51;120456.25;;;8.75;100.00
19845;BME280;10083;51.038;7.012;2023-12-20T00:57:18;120563.13;;;8.85;100.00
19845;BME280;10083;51.038;7.012;2023-12-20T00:59:51;120442.41;;;8.73;100.00
19845;BME280;10083;51.038;7.012;2023-12-20T01:02:21;120387.66;;;8.84;100.00
19845;BME280;10083;51.038;7.012;2023-12-20T01:05:00;120275.84;;;8.78;100.00
19845;BME280;10083;51.038;7.012;2023-12-20T01:07:28;120157.16;;;8.70;100.00
19845;BME280;10083;51.038;7.012;2023-12-20T01:09:59;120005.13;;;8.64;100.00
19845;BME280;10083;51.038;7.012;2023-12-20T01:12:26;119963.00;;;8.70;100.00
19845;BME280;10083;51.038;7.012;2023-12-20T01:15:10;119731.88;;;8.50;100.00
19845;BME280;10083;51.038;7.012;2023-12-20T01:17:37;119631.63;;;8.49;100.00
19845;BME280;10083;51.038;7.012;2023-12-20T01:20:10;119594.66;;;8.48;100.00
19845;BME280;10083;51.038;7.012;2023-12-20T01:22:38;119666.75;;;8.62;100.00
19845;BME280;10083;51.038;7.012;2023-12-20T01:25:12;119702.22;;;8.71;100.00
19845;BME280;10083;51.038;7.012;2023-12-20T01:27:40;119722.78;;;8.77;100.00
19845;BME280;10083;51.038;7.012;2023-12-20T01:30:19;119705.06;;;8.77;100.00
19845;BME280;10083;51.038;7.012;2023-12-20T01:32:47;119645.00;;;8.77;100.00
19845;BME280;10083;51.038;7.012;2023-12-20T01:35:21;119562.47;;;8.67;100.00
19845;BME280;10083;51.038;7.012;2023-12-20T01:37:49;119526.28;;;8.62;100.00
19845;BME280;10083;51.038;7.012;2023-12-20T01:40:26;119542.63;;;8.66;100.00
19845;BME280;10083;51.038;7.012;2023-12-20T01:43:06;119407.63;;;8.47;100.00
19845;BME280;10083;51.038;7.012;2023-12-20T01:45:34;119464.25;;;8.42;100.00
19845;BME280;10083;51.038;7.012;2023-12-20T01:48:02;119536.03;;;8.43;100.00
19845;BME280;10083;51.038;7.012;2023-12-20T01:50:36;119674.38;;;8.52;100.00
19845;BME280;10083;51.038;7.012;2023-12-20T01:53:05;119589.06;;;8.35;100.00
19845;BME280;10083;51.038;7.012;2023-12-20T01:55:36;119617.03;;;8.42;100.00
19845;BME280;10083;51.038;7.012;2023-12-20T01:58:06;119584.41;;;8.41;100.00
19845;BME280;10083;51.038;7.012;2023-12-20T02:00:34;119484.81;;;8.39;100.00
19845;BME280;10083;51.038;7.012;2023-12-20T02:03:03;119359.16;;;8.34;100.00
19845;BME280;10083;51.038;7.012;2023-12-20T02:05:35;119276.38;;;8.29;100.00
19845;BME280;10083;51.038;7.012;2023-12-20T02:08:03;119234.22;;;8.35;100.00
19845;BME280;10083;51.038;7.012;2023-12-20T02:13:36;119053.63;;;8.34;100.00
19845;BME280;10083;51.038;7.012;2023-12-20T02:16:04;118877.28;;;8.11;100.00
19845;BME280;10083;51.038;7.012;2023-12-20T02:21:48;118683.59;;;7.92;100.00
19845;BME280;10083;51.038;7.012;2023-12-20T02:24:16;118632.13;;;7.93;100.00
19845;BME280;10083;51.038;7.012;2023-12-20T02:26:43;118482.91;;;7.83;100.00
19845;BME280;10083;51.038;7.012;2023-12-20T02:29:13;118264.59;;;7.74;100.00
19845;BME280;10083;51.038;7.012;2023-12-20T02:31:40;118046.78;;;7.74;100.00
19845;BME280;10083;51.038;7.012;2023-12-20T02:34:21;117842.56;;;7.64;100.00
19845;BME280;10083;51.038;7.012;2023-12-20T02:36:50;117744.16;;;7.63;100.00
19845;BME280;10083;51.038;7.012;2023-12-20T02:39:18;117551.16;;;7.55;100.00
19845;BME280;10083;51.038;7.012;2023-12-20T02:41:56;117351.34;;;7.52;100.00
19845;BME280;10083;51.038;7.012;2023-12-20T02:44:23;117242.59;;;7.59;100.00
19845;BME280;10083;51.038;7.012;2023-12-20T02:46:57;117143.19;;;7.57;100.00
19845;BME280;10083;51.038;7.012;2023-12-20T02:49:24;117089.06;;;7.58;100.00
19845;BME280;10083;51.038;7.012;2023-12-20T02:51:57;117012.41;;;7.65;100.00
19845;BME280;10083;51.038;7.012;2023-12-20T02:54:24;116884.00;;;7.65;100.00
19845;BME280;10083;51.038;7.012;2023-12-20T02:56:59;116899.78;;;7.79;100.00
19845;BME280;10083;51.038;7.012;2023-12-20T14:04:17;103366.38;;;8.93;100.00
19845;BME280;10083;51.038;7.012;2023-12-20T14:06:48;103358.13;;;8.84;100.00
19845;BME280;10083;51.038;7.012;2023-12-20T14:09:16;103344.94;;;8.90;100.00
19845;BME280;10083;51.038;7.012;2023-12-20T14:11:54;103361.06;;;8.94;100.00
19845;BME280;10083;51.038;7.012;2023-12-20T14:14:42;103341.63;;;9.00;100.00
19845;BME280;10083;51.038;7.012;2023-12-20T14:17:33;103339.75;;;8.96;100.00
19845;BME280;10083;51.038;7.012;2023-12-20T14:20:30;103337.22;;;9.02;100.00
19845;BME280;10083;51.038;7.012;2023-12-20T14:23:16;103332.88;;;9.07;100.00
19845;BME280;10083;51.038;7.012;2023-12-20T14:26:06;103319.59;;;9.10;100.00
19845;BME280;10083;51.038;7.012;2023-12-20T14:28:50;103308.94;;;9.12;100.00
19845;BME280;10083;51.038;7.012;2023-12-20T14:31:37;103283.69;;;8.99;100.00
19845;BME280;10083;51.038;7.012;2023-12-20T14:34:26;103283.34;;;9.23;100.00
19845;BME280;10083;51.038;7.012;2023-12-20T14:37:25;103274.13;;;9.10;100.00
19845;BME280;10083;51.038;7.012;2023-12-20T14:40:13;103290.38;;;9.18;100.00
19845;BME280;10083;51.038;7.012;2023-12-20T14:42:46;103288.78;;;9.27;100.00
19845;BME280;10083;51.038;7.012;2023-12-20T14:45:14;103263.91;;;9.30;100.00
19845;BME280;10083;51.038;7.012;2023-12-20T14:47:43;103246.09;;;9.30;100.00
19845;BME280;10083;51.038;7.012;2023-12-20T14:50:12;103213.94;;;9.27;100.00
19845;BME280;10083;51.038;7.012;2023-12-20T14:52:45;103201.56;;;9.31;100.00
19845;BME280;10083;51.038;7.012;2023-12-20T14:55:13;103183.47;;;9.19;100.00
19845;BME280;10083;51.038;7.012;2023-12-20T14:57:40;103167.38;;;9.16;100.00
19845;BME280;10083;51.038;7.012;2023-12-20T15:00:08;103169.19;;;9.17;100.00
19845;BME280;10083;51.038;7.012;2023-12-20T15:02:41;103176.53;;;9.29;100.00
19845;BME280;10083;51.038;7.012;2023-12-20T15:05:09;103184.56;;;9.29;100.00
19845;BME280;10083;51.038;7.012;2023-12-20T15:07:36;103175.44;;;9.19;100.00
19845;BME280;10083;51.038;7.012;2023-12-20T15:10:06;103186.22;;;9.22;100.00
19845;BME280;10083;51.038;7.012;2023-12-20T15:12:33;103179.22;;;9.29;100.00
19845;BME280;10083;51.038;7.012;2023-12-20T15:15:04;103176.50;;;9.27;100.00
19845;BME280;10083;51.038;7.012;2023-12-20T15:17:33;103187.00;;;9.18;100.00
19845;BME280;10083;51.038;7.012;2023-12-20T15:20:07;103186.28;;;9.25;100.00
19845;BME280;10083;51.038;7.012;2023-12-20T15:22:39;103191.69;;;9.28;100.00
19845;BME280;10083;51.038;7.012;2023-12-20T15:25:12;103193.44;;;9.26;100.00
19845;BME280;10083;51.038;7.012;2023-12-20T15:27:45;103196.97;;;9.27;100.00
19845;BME280;10083;51.038;7.012;2023-12-20T15:30:15;103212.06;;;9.23;100.00
19845;BME280;10083;51.038;7.012;2023-12-20T15:32:43;103194.44;;;9.33;100.00
19845;BME280;10083;51.038;7.012;2023-12-20T15:35:11;103205.81;;;9.21;100.00
19845;BME280;10083;51.038;7.012;2023-12-20T15:37:39;103223.81;;;9.31;100.00
19845;BME280;10083;51.038;7.012;2023-12-20T15:40:08;103229.88;;;9.23;100.00
19845;BME280;10083;51.038;7.012;2023-12-20T15:42:38;103239.81;;;9.28;100.00
19845;BME280;10083;51.038;7.012;2023-12-20T15:45:07;103245.03;;;9.22;100.00
19845;BME280;10083;51.038;7.012;2023-12-20T15:47:35;103250.56;;;9.30;100.00
19845;BME280;10083;51.038;7.012;2023-12-20T15:50:03;103257.56;;;9.25;100.00
19845;BME280;10083;51.038;7.012;2023-12-20T15:52:31;103247.97;;;9.34;100.00
19845;BME280;10083;51.038;7.012;2023-12-20T15:54:59;103255.91;;;9.30;100.00
19845;BME280;10083;51.038;7.012;2023-12-20T15:57:32;103274.25;;;9.13;100.00
19845;BME280;10083;51.038;7.012;2023-12-20T16:00:07;103285.00;;;9.16;100.00
19845;BME280;10083;51.038;7.012;2023-12-20T16:02:35;103302.06;;;9.23;100.00
19845;BME280;10083;51.038;7.012;2023-12-20T16:05:02;103299.44;;;9.24;100.00
19845;BME280;10083;51.038;7.012;2023-12-20T16:07:28;103309.22;;;9.24;100.00
19845;BME280;10083;51.038;7.012;2023-12-20T16:09:56;103320.66;;;9.18;100.00
19845;BME280;10083;51.038;7.012;2023-12-20T16:12:23;103324.50;;;9.29;100.00
19845;BME280;10083;51.038;7.012;2023-12-20T16:14:50;103323.50;;;9.24;100.00
19845;BME280;10083;51.038;7.012;2023-12-20T16:17:34;103319.16;;;9.29;100.00
19845;BME280;10083;51.038;7.012;2023-12-20T16:20:02;103322.34;;;9.13;100.00
19845;BME280;10083;51.038;7.012;2023-12-20T16:22:39;103327.91;;;9.22;100.00
19845;BME280;10083;51.038;7.012;2023-12-20T16:25:07;103334.03;;;9.18;100.00
19845;BME280;10083;51.038;7.012;2023-12-20T16:47:07;103404.78;;;9.31;100.00
19845;BME280;10083;51.038;7.012;2023-12-20T16:49:34;103398.41;;;9.27;100.00
19845;BME280;10083;51.038;7.012;2023-12-20T16:52:01;103388.53;;;9.23;100.00
19845;BME280;10083;51.038;7.012;2023-12-20T16:54:29;103369.91;;;9.26;100.00
19845;BME280;10083;51.038;7.012;2023-12-20T16:56:56;103361.84;;;9.25;100.00
19845;BME280;10083;51.038;7.012;2023-12-20T17:02:34;103354.94;;;9.36;100.00
19845;BME280;10083;51.038;7.012;2023-12-20T17:05:01;103352.09;;;9.28;100.00
19845;BME280;10083;51.038;7.012;2023-12-20T17:07:29;103353.75;;;9.22;100.00
19845;BME280;10083;51.038;7.012;2023-12-20T17:09:57;103370.88;;;9.30;100.00
19845;BME280;10083;51.038;7.012;2023-12-20T17:12:24;103378.78;;;9.27;100.00
19845;BME280;10083;51.038;7.012;2023-12-20T17:14:51;103370.81;;;9.28;100.00
19845;BME280;10083;51.038;7.012;2023-12-20T17:17:19;103376.03;;;9.22;100.00
19845;BME280;10083;51.038;7.012;2023-12-20T17:19:48;103371.03;;;9.37;100.00
19845;BME280;10083;51.038;7.012;2023-12-20T17:22:16;103353.13;;;9.33;100.00
19845;BME280;10083;51.038;7.012;2023-12-20T17:24:46;103345.03;;;9.30;100.00
19845;BME280;10083;51.038;7.012;2023-12-20T17:27:14;103329.38;;;9.47;100.00
19845;BME280;10083;51.038;7.012;2023-12-20T17:29:44;103295.50;;;9.47;100.00
19845;BME280;10083;51.038;7.012;2023-12-20T17:32:12;103255.41;;;9.47;100.00
19845;BME280;10083;51.038;7.012;2023-12-20T17:34:39;103220.38;;;9.35;100.00
19845;BME280;10083;51.038;7.012;2023-12-20T17:37:08;103198.19;;;9.41;100.00
19845;BME280;10083;51.038;7.012;2023-12-20T17:39:36;103194.75;;;9.46;100.00
19845;BME280;10083;51.038;7.012;2023-12-20T17:42:06;103169.84;;;9.50;100.00
19845;BME280;10083;51.038;7.012;2023-12-20T17:44:34;103116.59;;;9.61;100.00
19845;BME280;10083;51.038;7.012;2023-12-20T17:47:01;103095.16;;;9.60;100.00
19845;BME280;10083;51.038;7.012;2023-12-20T17:49:28;103063.91;;;9.59;100.00
19845;BME280;10083;51.038;7.012;2023-12-20T17:51:57;103035.34;;;9.56;100.00
19845;BME280;10083;51.038;7.012;2023-12-20T17:54:26;103001.56;;;9.61;100.00
19845;BME280;10083;51.038;7.012;2023-12-20T17:56:55;102983.00;;;9.72;100.00
19845;BME280;10083;51.038;7.012;2023-12-20T17:59:25;102997.97;;;9.62;100.00
19845;BME280;10083;51.038;7.012;2023-12-20T18:01:52;102995.34;;;9.64;100.00
19845;BME280;10083;51.038;7.012;2023-12-20T18:04:20;102966.13;;;9.77;100.00
19845;BME280;10083;51.038;7.012;2023-12-20T18:06:50;102980.47;;;9.81;100.00
19845;BME280;10083;51.038;7.012;2023-12-20T18:09:17;102973.22;;;9.75;100.00
19845;BME280;10083;51.038;7.012;2023-12-20T18:11:46;102951.81;;;9.75;100.00
19845;BME280;10083;51.038;7.012;2023-12-20T18:14:14;102942.03;;;9.76;100.00
19845;BME280;10083;51.038;7.012;2023-12-20T18:16:42;102916.91;;;9.66;100.00
19845;BME280;10083;51.038;7.012;2023-12-20T18:19:10;102933.13;;;9.77;100.00
19845;BME280;10083;51.038;7.012;2023-12-20T18:21:37;102929.50;;;9.75;100.00
19845;BME280;10083;51.038;7.012;2023-12-20T18:24:05;102923.31;;;9.77;100.00
19845;BME280;10083;51.038;7.012;2023-12-20T18:26:32;102927.75;;;9.74;100.00
19845;BME280;10083;51.038;7.012;2023-12-20T18:29:02;102927.75;;;9.74;100.00
19845;BME280;10083;51.038;7.012;2023-12-20T18:31:32;102931.31;;;9.76;100.00
19845;BME280;10083;51.038;7.012;2023-12-20T18:34:00;102922.41;;;9.74;100.00
19845;BME280;10083;51.038;7.012;2023-12-20T18:36:27;102909.09;;;9.78;100.00
19845;BME280;10083;51.038;7.012;2023-12-20T18:38:58;102904.63;;;9.79;100.00
19845;BME280;10083;51.038;7.012;2023-12-20T18:41:25;102896.66;;;9.85;100.00
19845;BME280;10083;51.038;7.012;2023-12-20T18:43:52;102871.75;;;9.89;100.00
19845;BME280;10083;51.038;7.012;2023-12-20T18:46:23;102876.25;;;9.93;100.00
19845;BME280;10083;51.038;7.012;2023-12-20T18:48:51;102846.88;;;9.96;100.00
19845;BME280;10083;51.038;7.012;2023-12-20T18:51:22;102837.00;;;9.92;100.00
19845;BME280;10083;51.038;7.012;2023-12-20T18:53:51;102831.69;;;9.95;100.00
19845;BME280;10083;51.038;7.012;2023-12-20T18:56:24;102837.09;;;9.98;100.00
19845;BME280;10083;51.038;7.012;2023-12-20T18:58:53;102837.22;;;10.10;100.00
19845;BME280;10083;51.038;7.012;2023-12-20T19:01:22;102829.94;;;9.98;100.00
19845;BME280;10083;51.038;7.012;2023-12-20T19:03:50;102825.53;;;10.01;100.00
19845;BME280;10083;51.038;7.012;2023-12-20T19:06:18;102829.06;;;10.01;100.00
19845;BME280;10083;51.038;7.012;2023-12-20T19:08:46;102841.69;;;10.10;100.00
19845;BME280;10083;51.038;7.012;2023-12-20T19:11:16;102841.69;;;10.08;100.00
19845;BME280;10083;51.038;7.012;2023-12-20T19:13:47;102832.88;;;10.15;100.00
19845;BME280;10083;51.038;7.012;2023-12-20T19:16:15;102841.81;;;10.17;100.00
19845;BME280;10083;51.038;7.012;2023-12-20T19:18:45;102823.13;;;10.23;100.00
19845;BME280;10083;51.038;7.012;2023-12-20T19:32:12;102889.84;;;10.07;100.00
19845;BME280;10083;51.038;7.012;2023-12-20T19:34:41;102917.44;;;10.03;100.00
19845;BME280;10083;51.038;7.012;2023-12-20T19:37:08;102958.47;;;10.02;100.00
19845;BME280;10083;51.038;7.012;2023-12-20T19:39:38;102956.06;;;10.17;100.00
19845;BME280;10083;51.038;7.012;2023-12-20T19:42:05;102973.81;;;10.13;100.00
19845;BME280;10083;51.038;7.012;2023-12-20T19:44:35;102984.69;;;10.22;100.00
19845;BME280;10083;51.038;7.012;2023-12-20T19:47:03;102973.94;;;10.18;100.00
19845;BME280;10083;51.038;7.012;2023-12-20T19:49:30;102935.63;;;10.25;100.00
19845;BME280;10083;51.038;7.012;2023-12-20T19:52:00;102906.19;;;10.28;100.00
19845;BME280;10083;51.038;7.012;2023-12-20T19:54:29;102883.03;;;10.30;100.00
19845;BME280;10083;51.038;7.012;2023-12-20T19:56:59;102872.19;;;10.19;100.00
19845;BME280;10083;51.038;7.012;2023-12-20T19:59:27;102839.38;;;10.35;100.00
19845;BME280;10083;51.038;7.012;2023-12-20T20:01:55;102830.38;;;10.30;100.00
19845;BME280;10083;51.038;7.012;2023-12-20T20:04:27;102808.13;;;10.37;100.00
19845;BME280;10083;51.038;7.012;2023-12-20T20:06:54;102797.28;;;10.25;100.00
19845;BME280;10083;51.038;7.012;2023-12-20T20:09:23;102792.03;;;10.34;100.00
19845;BME280;10083;51.038;7.012;2023-12-20T20:11:51;102793.72;;;10.28;100.00
19845;BME280;10083;51.038;7.012;2023-12-20T20:14:21;102787.63;;;10.39;100.00
19845;BME280;10083;51.038;7.012;2023-12-20T20:16:53;102785.81;;;10.35;100.00
19845;BME280;10083;51.038;7.012;2023-12-20T20:19:20;102786.72;;;10.39;100.00
19845;BME280;10083;51.038;7.012;2023-12-20T20:21:48;102788.50;;;10.38;100.00
19845;BME280;10083;51.038;7.012;2023-12-20T20:24:15;102804.53;;;10.37;100.00
19845;BME280;10083;51.038;7.012;2023-12-20T20:26:45;102807.31;;;10.43;100.00
19845;BME280;10083;51.038;7.012;2023-12-20T20:29:12;102824.09;;;10.28;100.00
19845;BME280;10083;51.038;7.012;2023-12-20T20:31:43;102843.78;;;10.30;100.00
19845;BME280;10083;51.038;7.012;2023-12-20T20:34:10;102886.53;;;10.24;100.00
19845;BME280;10083;51.038;7.012;2023-12-20T20:36:37;102907.03;;;10.22;100.00
19845;BME280;10083;51.038;7.012;2023-12-20T20:39:05;102969.41;;;10.15;100.00
19845;BME280;10083;51.038;7.012;2023-12-20T20:41:33;102996.28;;;10.21;100.00
19845;BME280;10083;51.038;7.012;2023-12-20T20:44:03;103017.88;;;10.33;100.00
19845;BME280;10083;51.038;7.012;2023-12-20T20:46:33;103019.56;;;10.28;100.00
19845;BME280;10083;51.038;7.012;2023-12-20T20:49:01;103030.44;;;10.40;100.00
19845;BME280;10083;51.038;7.012;2023-12-20T20:51:30;103038.34;;;10.31;100.00
19845;BME280;10083;51.038;7.012;2023-12-20T20:53:57;103015.28;;;10.41;100.00
19845;BME280;10083;51.038;7.012;2023-12-20T20:56:25;102999.19;;;10.38;100.00
19845;BME280;10083;51.038;7.012;2023-12-20T20:58:52;102988.41;;;10.33;100.00
19845;BME280;10083;51.038;7.012;2023-12-20T21:01:21;102982.28;;;10.42;100.00
19845;BME280;10083;51.038;7.012;2023-12-20T21:03:50;102962.63;;;10.41;100.00
19845;BME280;10083;51.038;7.012;2023-12-20T21:06:17;102951.06;;;10.44;100.00
19845;BME280;10083;51.038;7.012;2023-12-20T21:08:46;102943.84;;;10.38;100.00
19845;BME280;10083;51.038;7.012;2023-12-20T21:11:14;102913.63;;;10.50;100.00
19845;BME280;10083;51.038;7.012;2023-12-20T21:13:44;102893.97;;;10.48;100.00
19845;BME280;10083;51.038;7.012;2023-12-20T21:16:13;102861.78;;;10.47;100.00
19845;BME280;10083;51.038;7.012;2023-12-20T21:18:42;102855.50;;;10.44;100.00
19845;BME280;10083;51.038;7.012;2023-12-20T21:21:10;102872.41;;;10.37;100.00
19845;BME280;10083;51.038;7.012;2023-12-20T21:23:40;102876.84;;;10.35;100.00
19845;BME280;10083;51.038;7.012;2023-12-20T21:26:08;102904.50;;;10.36;100.00
19845;BME280;10083;51.038;7.012;2023-12-20T21:28:37;102925.00;;;10.32;100.00
19845;BME280;10083;51.038;7.012;2023-12-20T21:31:05;102984.66;;;10.21;100.00
19845;BME280;10083;51.038;7.012;2023-12-20T21:33:32;103029.31;;;10.23;100.00
19845;BME280;10083;51.038;7.012;2023-12-20T21:36:01;103052.53;;;10.24;100.00
19845;BME280;10083;51.038;7.012;2023-12-20T21:38:29;103110.56;;;10.22;100.00
